GOGS

Cap Skirring Airport

Cap Skirring, Senegal
METAR GOGS 181200Z VRB10KT CAVOK 28/04 Q1015
Observed Flight Rules
Jan-18 @ 12:00 UTC (2 hours ago) Visual Flight Rules
Wind Visibility Clouds
Variable at 10 knots 10,000+ meters
  • Clear skies
Temperatures Readings
Current 28°C / 82°F
Dewpoint 4°C / 39°F
Humidity 21%
Altimeter 29.97" Hg
Pressure 1014.92 hPa
Elevation 13
METAR GOGS 181200Z VRB10KT CAVOK 28/04 Q1015
Observed Flight Rules
Jan-18 @ 12:00 UTC
(2 hours ago)
VFR
Wind Visibility
Variable at 10 knots 10,000+ meters
Clouds
  • Clear skies
Temperature Dewpoint
28°C / 82°F 4°C / 39°F
Humidity Altimeter Pressure
21% 29.97" Hg 1014.92 hPa